Time;durP1;ratioP1;P1;durP2;ratioP2;P2;SDS_P1;SDS_P2;PMS_P1;PMS_P2;Temp;Humidity;BMP_temperature;BMP_pressure;BME280_temperature;BME280_humidity;BME280_pressure;Samples;Min_cycle;Max_cycle;Signal;HPM_P1;HPM_P2
2022/04/02 00:01:24;;;;;;;14.88;6.45;;;;;;;2.87;100.00;99596.38;5080454;28;20101;-78
2022/04/02 00:03:50;;;;;;;16.52;8.52;;;;;;;3.08;100.00;99618.84;5099451;28;20031;-78
2022/04/02 00:06:16;;;;;;;16.70;7.55;;;;;;;3.08;100.00;99624.03;5097745;28;20028;-80
2022/04/02 00:08:41;;;;;;;14.68;7.65;;;;;;;2.93;100.00;99600.22;5099351;28;20139;-80
2022/04/02 00:11:07;;;;;;;13.50;7.85;;;;;;;3.00;100.00;99616.91;5100984;28;20022;-79
2022/04/02 00:13:34;;;;;;;13.15;7.45;;;;;;;3.10;100.00;99633.34;5099008;28;20118;-80
2022/04/02 00:16:01;;;;;;;18.77;7.97;;;;;;;3.08;100.00;99624.03;5095861;28;20048;-80
2022/04/02 00:18:26;;;;;;;14.98;8.07;;;;;;;3.12;100.00;99625.41;5097848;28;20103;-79
2022/04/02 00:20:52;;;;;;;15.40;8.02;;;;;;;3.04;100.00;99622.66;5102135;28;20424;-80
2022/04/02 00:26:07;;;;;;;13.88;7.82;;;;;;;3.08;100.00;99631.81;5096829;28;20119;-81
2022/04/02 00:28:35;;;;;;;13.70;7.75;;;;;;;3.04;100.00;99617.47;5095086;28;20047;-80
2022/04/02 00:31:01;;;;;;;19.08;7.47;;;;;;;3.09;100.00;99633.44;5102101;28;20028;-80
2022/04/02 00:33:27;;;;;;;14.10;7.57;;;;;;;3.03;100.00;99626.19;5101441;28;20111;-79
2022/04/02 00:35:53;;;;;;;15.77;7.90;;;;;;;3.09;100.00;99625.66;5100698;28;20028;-78
2022/04/02 00:38:19;;;;;;;13.60;7.43;;;;;;;3.10;100.00;99632.50;5105363;28;20031;-79
2022/04/02 00:40:45;;;;;;;19.83;8.70;;;;;;;3.13;100.00;99635.66;5105112;28;20122;-80
2022/04/02 00:43:47;;;;;;;16.58;7.70;;;;;;;3.07;100.00;99630.16;5105991;28;20074;-80
2022/04/02 00:46:13;;;;;;;16.10;7.90;;;;;;;3.10;100.00;99624.72;5094217;28;20040;-81
2022/04/02 00:48:40;;;;;;;19.15;8.13;;;;;;;3.14;100.00;99645.09;5101411;28;20402;-82
2022/04/02 00:51:08;;;;;;;17.45;8.23;;;;;;;3.16;100.00;99636.34;5088137;28;20052;-82
2022/04/02 00:53:38;;;;;;;14.48;8.50;;;;;;;3.08;100.00;99629.22;5097432;28;20034;-81
2022/04/02 00:56:05;;;;;;;18.92;9.50;;;;;;;3.00;100.00;99629.88;5102888;28;20479;-82
2022/04/02 00:58:31;;;;;;;16.45;8.40;;;;;;;3.00;100.00;99630.69;5104999;28;20024;-81
2022/04/02 01:01:01;;;;;;;14.80;8.50;;;;;;;3.05;100.00;99634.66;5108900;28;20035;-82
2022/04/02 01:03:27;;;;;;;13.45;8.52;;;;;;;3.02;100.00;99616.78;5110510;28;20030;-81
2022/04/02 01:05:53;;;;;;;14.57;8.05;;;;;;;3.14;100.00;99631.28;5101982;28;20481;-81
2022/04/02 01:08:19;;;;;;;16.08;8.40;;;;;;;3.20;100.00;99635.13;5107469;28;20542;-80
2022/04/02 01:10:45;;;;;;;15.43;8.68;;;;;;;3.18;100.00;99624.91;5076980;28;20032;-81
2022/04/02 01:13:12;;;;;;;13.88;8.40;;;;;;;3.20;100.00;99633.38;5112215;28;20031;-81
2022/04/02 01:15:39;;;;;;;17.65;8.65;;;;;;;3.25;100.00;99625.19;5110942;28;20056;-81
2022/04/02 01:18:05;;;;;;;14.35;8.65;;;;;;;3.39;100.00;99629.19;5100235;28;20492;-81
2022/04/02 01:20:32;;;;;;;18.30;9.10;;;;;;;3.41;100.00;99633.25;5081952;28;20074;-82
2022/04/02 01:22:59;;;;;;;14.20;8.68;;;;;;;3.28;100.00;99615.34;5098979;28;20036;-81
2022/04/02 01:25:31;;;;;;;16.17;8.85;;;;;;;3.32;100.00;99625.47;5099058;28;20055;-82
2022/04/02 01:28:00;;;;;;;16.77;7.88;;;;;;;3.36;100.00;99629.44;5103831;28;20051;-80
2022/04/02 01:30:27;;;;;;;15.38;8.50;;;;;;;3.33;100.00;99629.69;5106998;28;20026;-82
2022/04/02 01:32:52;;;;;;;14.52;8.60;;;;;;;3.31;100.00;99618.63;5101500;28;20024;-80
2022/04/02 01:35:21;;;;;;;17.50;8.18;;;;;;;3.17;100.00;99607.69;5079933;28;20031;-82
2022/04/02 01:37:48;;;;;;;14.95;8.35;;;;;;;3.31;100.00;99613.44;5100976;28;20023;-81
2022/04/02 01:40:13;;;;;;;18.58;8.90;;;;;;;3.23;100.00;99601.13;5095726;28;20024;-81
2022/04/02 01:42:39;;;;;;;13.30;8.00;;;;;;;3.29;100.00;99616.19;5102401;28;20547;-81
2022/04/02 01:45:05;;;;;;;17.25;8.57;;;;;;;3.35;100.00;99618.25;5096570;28;20028;-81
2022/04/02 01:47:31;;;;;;;13.32;7.60;;;;;;;3.39;100.00;99621.41;5102538;28;20408;-82
2022/04/02 01:49:56;;;;;;;16.58;8.25;;;;;;;3.37;100.00;99607.75;5098131;28;20044;-81
2022/04/02 01:52:22;;;;;;;16.63;7.90;;;;;;;3.41;100.00;99616.88;5103213;28;20070;-82
2022/04/02 01:54:48;;;;;;;13.50;7.15;;;;;;;3.40;100.00;99613.47;5105284;28;20023;-82
2022/04/02 01:57:14;;;;;;;19.15;7.70;;;;;;;3.38;100.00;99611.97;5103626;28;20031;-82
2022/04/02 01:59:40;;;;;;;14.20;8.07;;;;;;;3.36;100.00;99613.88;5103458;28;20028;-81
2022/04/02 02:02:07;;;;;;;16.25;8.30;;;;;;;3.46;100.00;99616.50;5100666;28;20028;-82
2022/04/02 02:04:36;;;;;;;14.55;7.43;;;;;;;3.43;100.00;99625.34;5099768;28;20035;-82
2022/04/02 02:07:03;;;;;;;14.40;7.60;;;;;;;3.40;100.00;99615.25;5105865;28;20031;-81
2022/04/02 02:09:29;;;;;;;19.23;8.82;;;;;;;3.46;100.00;99609.50;5116201;28;20039;-81
2022/04/02 02:11:55;;;;;;;15.68;7.68;;;;;;;3.41;100.00;99606.50;5118868;28;20032;-81
2022/04/02 02:14:21;;;;;;;16.48;7.80;;;;;;;3.41;100.00;99609.09;5111379;28;20024;-82
2022/04/02 02:16:46;;;;;;;12.88;6.90;;;;;;;3.49;100.00;99606.66;5116550;28;20055;-81
2022/04/02 02:19:12;;;;;;;17.55;8.00;;;;;;;3.61;100.00;99603.94;5116520;28;20035;-81
2022/04/02 02:21:37;;;;;;;14.68;8.20;;;;;;;3.67;100.00;99608.59;5118312;28;20043;-82
2022/04/02 02:24:04;;;;;;;12.90;7.32;;;;;;;3.59;100.00;99611.03;5116589;28;20024;-82
2022/04/02 02:26:30;;;;;;;14.75;7.28;;;;;;;3.70;100.00;99610.91;5104812;28;20031;-81
2022/04/02 02:28:56;;;;;;;15.55;8.30;;;;;;;3.65;100.00;99606.13;5115017;28;20031;-81
2022/04/02 02:31:22;;;;;;;18.35;7.57;;;;;;;3.71;100.00;99615.97;5108330;28;20380;-80
2022/04/02 02:36:43;;;;;;;16.88;7.32;;;;;;;3.83;100.00;99614.06;5092252;28;20146;-82
2022/04/02 02:39:10;;;;;;;18.88;8.68;;;;;;;3.79;100.00;99612.69;5090170;28;20032;-82
2022/04/02 02:41:35;;;;;;;13.63;7.80;;;;;;;3.88;100.00;99615.41;5100688;28;20516;-82
2022/04/02 02:44:01;;;;;;;15.43;7.95;;;;;;;3.82;100.00;99615.03;5107533;28;20028;-81
2022/04/02 02:46:27;;;;;;;16.55;8.02;;;;;;;3.86;100.00;99602.59;5114741;28;20032;-81
2022/04/02 02:48:52;;;;;;;14.20;8.27;;;;;;;3.88;100.00;99611.06;5103532;28;20359;-81
2022/04/02 02:51:20;;;;;;;14.73;7.63;;;;;;;3.82;100.00;99604.63;5101258;28;20569;-81
2022/04/02 02:53:45;;;;;;;12.30;7.38;;;;;;;3.96;100.00;99610.38;5102252;28;20028;-82
2022/04/02 02:56:11;;;;;;;12.95;6.82;;;;;;;3.90;100.00;99609.16;5103984;28;20036;-82
2022/04/02 02:58:36;;;;;;;12.15;6.70;;;;;;;3.97;100.00;99601.63;5100551;28;20028;-82
2022/04/02 03:01:02;;;;;;;14.02;7.18;;;;;;;4.10;100.00;99609.13;5116797;28;20031;-81
2022/04/02 03:03:28;;;;;;;14.25;7.90;;;;;;;4.03;100.00;99593.28;5106119;28;20056;-82
2022/04/02 03:05:53;;;;;;;13.63;6.80;;;;;;;4.09;100.00;99610.91;5111573;28;20023;-82
2022/04/02 03:08:19;;;;;;;14.98;6.93;;;;;;;4.08;100.00;99591.06;5100963;28;20033;-82
2022/04/02 03:10:45;;;;;;;14.05;6.93;;;;;;;4.22;100.00;99602.00;5104779;28;20088;-81
2022/04/02 03:13:11;;;;;;;14.55;6.45;;;;;;;4.21;100.00;99605.56;5098043;28;20032;-82
2022/04/02 03:15:38;;;;;;;15.75;6.35;;;;;;;4.18;100.00;99595.47;5105844;28;20381;-82
2022/04/02 03:18:06;;;;;;;11.40;6.32;;;;;;;4.26;100.00;99605.97;5101282;28;20093;-82
2022/04/02 03:20:35;;;;;;;23.00;6.65;;;;;;;4.31;100.00;99601.16;5106354;28;20030;-82
2022/04/02 03:23:01;;;;;;;10.77;5.85;;;;;;;4.22;100.00;99591.63;5104553;28;20496;-82
2022/04/02 03:25:27;;;;;;;10.43;5.43;;;;;;;4.34;100.00;99600.06;5103071;28;20032;-81
2022/04/02 03:27:53;;;;;;;14.25;6.47;;;;;;;4.26;100.00;99587.78;5103867;28;20032;-82
2022/04/02 03:30:21;;;;;;;11.98;6.28;;;;;;;4.30;100.00;99594.31;5108172;28;20023;-81
2022/04/02 03:32:47;;;;;;;12.70;5.85;;;;;;;4.27;100.00;99592.00;5105397;28;20028;-83
2022/04/02 03:35:14;;;;;;;12.80;5.65;;;;;;;4.25;100.00;99601.72;5105092;28;20405;-83
2022/04/02 03:37:44;;;;;;;15.85;6.65;;;;;;;4.26;100.00;99593.81;5079247;28;20485;-81
2022/04/02 03:40:14;;;;;;;12.35;5.57;;;;;;;4.27;100.00;99594.59;5104632;28;20053;-82
2022/04/02 03:42:41;;;;;;;12.88;5.35;;;;;;;4.25;100.00;99601.72;5107589;28;20027;-80
2022/04/02 03:45:09;;;;;;;9.88;5.18;;;;;;;4.38;100.00;99597.06;5107335;28;20115;-81
2022/04/02 03:47:35;;;;;;;12.85;5.55;;;;;;;4.36;100.00;99598.97;5114470;28;20032;-81
2022/04/02 03:50:01;;;;;;;15.50;4.97;;;;;;;4.32;100.00;99582.00;5104911;28;20035;-80
2022/04/02 03:52:27;;;;;;;11.23;5.40;;;;;;;4.28;100.00;99586.69;5104186;28;20397;-81
2022/04/02 03:54:52;;;;;;;13.98;6.15;;;;;;;4.33;100.00;99582.84;5110421;28;20036;-81
2022/04/02 03:57:18;;;;;;;9.90;5.35;;;;;;;4.37;100.00;99590.22;5114483;28;20027;-81
2022/04/02 03:59:44;;;;;;;11.15;5.15;;;;;;;4.30;100.00;99586.53;5104236;28;20054;-82
2022/04/02 04:02:10;;;;;;;13.63;4.75;;;;;;;4.42;100.00;99597.56;5106454;28;20028;-81
2022/04/02 04:04:37;;;;;;;11.10;6.28;;;;;;;4.37;100.00;99587.63;5080009;28;20565;-82
2022/04/02 04:07:04;;;;;;;8.02;3.97;;;;;;;4.38;100.00;99597.06;5108282;28;20036;-81
2022/04/02 04:09:30;;;;;;;10.73;4.45;;;;;;;4.38;100.00;99576.25;5098608;28;20507;-81
2022/04/02 04:11:55;;;;;;;8.77;4.28;;;;;;;4.33;100.00;99573.28;5100788;28;20047;-81
2022/04/02 04:14:22;;;;;;;9.55;4.60;;;;;;;4.45;100.00;99586.09;5109455;28;20027;-81
2022/04/02 04:16:48;;;;;;;10.32;4.32;;;;;;;4.51;100.00;99595.91;5102885;28;20024;-81
2022/04/02 04:19:14;;;;;;;8.80;4.38;;;;;;;4.51;100.00;99601.94;5103591;28;20035;-81
2022/04/02 04:21:40;;;;;;;11.65;4.57;;;;;;;4.45;100.00;99588.69;5105212;28;20110;-80
2022/04/02 04:24:07;;;;;;;9.30;4.30;;;;;;;4.43;100.00;99604.44;5101749;28;20036;-81
2022/04/02 04:26:33;;;;;;;8.68;4.63;;;;;;;4.36;100.00;99593.78;5103890;28;20035;-81
2022/04/02 04:28:58;;;;;;;9.05;3.83;;;;;;;4.21;100.00;99585.59;5103083;28;20023;-79
2022/04/02 04:31:25;;;;;;;7.07;4.40;;;;;;;4.31;100.00;99595.97;5102567;28;20031;-80
2022/04/02 04:33:51;;;;;;;11.60;4.38;;;;;;;4.30;100.00;99604.72;5103985;28;20036;-82
2022/04/02 04:36:18;;;;;;;11.32;4.97;;;;;;;4.26;100.00;99603.38;5081197;28;20028;-80
2022/04/02 04:38:45;;;;;;;10.27;3.95;;;;;;;4.17;100.00;99609.41;5105957;28;20035;-80
2022/04/02 04:41:11;;;;;;;11.20;4.88;;;;;;;4.08;100.00;99611.84;5104370;28;20028;-80
2022/04/02 04:43:41;;;;;;;10.88;4.30;;;;;;;4.06;100.00;99597.38;5110761;28;20020;-81
2022/04/02 04:46:07;;;;;;;7.90;4.10;;;;;;;4.00;100.00;99611.75;5109542;28;20500;-81
2022/04/02 04:48:35;;;;;;;8.25;3.78;;;;;;;3.92;100.00;99607.22;5100900;28;20474;-80
2022/04/02 04:51:02;;;;;;;11.77;3.92;;;;;;;3.81;100.00;99592.59;5100072;28;20059;-79
2022/04/02 04:53:28;;;;;;;6.13;3.00;;;;;;;3.89;100.00;99604.06;5083805;28;20397;-80
2022/04/02 04:55:54;;;;;;;14.80;3.40;;;;;;;3.82;100.00;99596.84;5110031;28;20035;-80
2022/04/02 04:58:19;;;;;;;12.05;3.97;;;;;;;3.89;100.00;99611.88;5108784;28;20093;-80
2022/04/02 05:00:45;;;;;;;13.38;5.65;;;;;;;3.77;100.00;99616.38;5097380;28;20051;-80
2022/04/02 05:03:12;;;;;;;8.60;4.28;;;;;;;3.73;100.00;99613.22;5102372;28;20028;-81
2022/04/02 05:05:38;;;;;;;9.52;4.35;;;;;;;3.66;100.00;99606.94;5106853;28;20027;-79
2022/04/02 05:08:08;;;;;;;12.82;4.47;;;;;;;3.74;100.00;99622.69;5104196;28;20501;-81
2022/04/02 05:10:34;;;;;;;9.65;5.00;;;;;;;3.72;100.00;99629.75;5101170;28;20027;-80
2022/04/02 05:13:03;;;;;;;9.90;4.53;;;;;;;3.73;100.00;99628.81;5101706;28;20077;-81
2022/04/02 05:15:29;;;;;;;13.25;5.03;;;;;;;3.70;100.00;99618.69;5103339;28;20416;-81
2022/04/02 05:17:56;;;;;;;9.45;4.70;;;;;;;3.65;100.00;99620.88;5104911;28;20516;-81
2022/04/02 05:20:25;;;;;;;13.23;4.93;;;;;;;3.65;100.00;99637.28;5102178;28;20032;-80
2022/04/02 05:22:51;;;;;;;9.35;4.22;;;;;;;3.60;100.00;99629.06;5103898;28;20519;-80
2022/04/02 05:25:16;;;;;;;10.63;4.80;;;;;;;3.63;100.00;99635.78;5107953;28;20032;-81
2022/04/02 05:27:42;;;;;;;10.35;4.63;;;;;;;3.64;100.00;99624.44;5107324;28;20469;-80
2022/04/02 05:30:08;;;;;;;11.50;3.95;;;;;;;3.62;100.00;99627.16;5105238;28;20020;-81
2022/04/02 05:32:34;;;;;;;8.23;4.22;;;;;;;3.62;100.00;99637.53;5102844;28;20031;-81
2022/04/02 05:34:59;;;;;;;8.43;4.60;;;;;;;3.63;100.00;99649.56;5096887;28;20034;-80
2022/04/02 05:37:25;;;;;;;10.95;4.88;;;;;;;3.64;100.00;99650.41;5096914;28;20032;-81
2022/04/02 05:39:51;;;;;;;13.43;4.53;;;;;;;3.59;100.00;99653.38;5102006;28;20028;-83
2022/04/02 05:42:17;;;;;;;9.25;4.13;;;;;;;3.62;100.00;99636.72;5100544;28;20366;-82
2022/04/02 05:44:43;;;;;;;12.68;4.68;;;;;;;3.70;100.00;99650.69;5096243;28;20028;-83
2022/04/02 05:47:09;;;;;;;13.95;4.85;;;;;;;3.61;100.00;99629.91;5098214;28;20038;-82
2022/04/02 05:49:36;;;;;;;10.23;4.78;;;;;;;3.68;100.00;99659.56;5101563;28;20491;-83
2022/04/02 05:52:03;;;;;;;8.82;4.00;;;;;;;3.77;100.00;99650.13;5105466;28;20051;-82
2022/04/02 05:54:30;;;;;;;9.38;4.45;;;;;;;3.85;100.00;99648.50;5102172;28;20567;-83
2022/04/02 05:56:56;;;;;;;23.23;4.97;;;;;;;3.87;100.00;99648.38;5104352;28;20496;-82
2022/04/02 05:59:22;;;;;;;10.18;5.93;;;;;;;3.89;100.00;99648.22;5102632;28;20031;-84
2022/04/02 06:01:48;;;;;;;11.15;4.93;;;;;;;3.86;100.00;99652.75;5100679;28;20039;-83
2022/04/02 06:04:17;;;;;;;10.25;4.30;;;;;;;3.70;100.00;99660.22;5098847;28;20507;-82
2022/04/02 06:06:49;;;;;;;7.57;3.50;;;;;;;3.69;100.00;99643.84;5103823;28;20032;-82
2022/04/02 06:09:20;;;;;;;10.88;4.20;;;;;;;3.72;100.00;99647.94;5102983;28;20388;-82
2022/04/02 06:11:46;;;;;;;10.23;3.50;;;;;;;3.89;100.00;99669.00;5103407;28;20024;-81
2022/04/02 06:14:13;;;;;;;8.32;3.58;;;;;;;3.93;100.00;99662.56;5102286;28;20084;-83
2022/04/02 06:16:39;;;;;;;8.25;3.20;;;;;;;3.96;100.00;99655.34;5102522;28;20027;-82
2022/04/02 06:19:06;;;;;;;9.68;3.42;;;;;;;4.03;100.00;99666.00;5082872;28;20044;-81
2022/04/02 06:21:31;;;;;;;8.18;3.20;;;;;;;4.07;100.00;99672.56;5103956;28;20465;-79
2022/04/02 06:23:57;;;;;;;8.40;3.58;;;;;;;4.14;100.00;99659.84;5100865;28;20036;-79
2022/04/02 06:26:23;;;;;;;7.20;3.20;;;;;;;4.18;100.00;99658.63;5102250;28;20027;-78
2022/04/02 06:28:48;;;;;;;6.28;3.00;;;;;;;4.35;100.00;99667.53;5105952;28;20038;-80
2022/04/02 06:31:14;;;;;;;9.50;2.95;;;;;;;4.40;100.00;99667.09;5102335;28;20031;-79
2022/04/02 06:33:44;;;;;;;7.97;2.85;;;;;;;4.56;100.00;99682.13;5097866;28;20036;-80
2022/04/02 06:36:10;;;;;;;10.40;3.13;;;;;;;4.83;100.00;99689.19;5093126;28;20040;-80
2022/04/02 06:38:35;;;;;;;8.70;3.85;;;;;;;5.07;100.00;99684.44;5096369;28;20674;-80
2022/04/02 06:41:02;;;;;;;7.30;3.25;;;;;;;5.39;100.00;99688.44;5097610;28;20036;-81
2022/04/02 06:43:28;;;;;;;9.10;3.80;;;;;;;5.73;100.00;99695.66;5097681;28;20033;-85
2022/04/02 06:45:54;;;;;;;10.85;3.35;;;;;;;5.85;100.00;99693.66;5097330;28;20046;-83
2022/04/02 06:48:19;;;;;;;6.43;3.13;;;;;;;6.02;100.00;99699.88;5101601;28;20027;-84
2022/04/02 06:50:48;;;;;;;5.93;2.72;;;;;;;5.95;100.00;99704.00;5098857;28;20044;-86
2022/04/02 06:53:13;;;;;;;4.53;3.22;;;;;;;6.11;100.00;99703.38;5099353;28;20028;-80
2022/04/02 06:55:40;;;;;;;6.57;2.88;;;;;;;6.11;100.00;99706.81;5104362;28;20042;-80
2022/04/02 06:58:24;;;;;;;4.35;2.15;;;;;;;6.35;100.00;99705.38;5104148;28;20038;-79
2022/04/02 07:00:51;;;;;;;9.50;2.88;;;;;;;6.50;100.00;99704.84;5082527;28;20045;-80
2022/04/02 07:03:17;;;;;;;9.38;2.90;;;;;;;6.52;100.00;99713.34;5103054;28;20028;-79
2022/04/02 07:05:44;;;;;;;6.72;2.50;;;;;;;6.62;100.00;99721.88;5110697;28;20042;-79
2022/04/02 07:08:11;;;;;;;7.25;2.97;;;;;;;6.51;100.00;99709.91;5086816;28;20358;-80
2022/04/02 07:10:38;;;;;;;6.68;3.28;;;;;;;6.64;100.00;99726.97;5099934;28;20032;-79
2022/04/02 07:13:05;;;;;;;5.18;2.85;;;;;;;6.26;100.00;99708.88;5103928;28;20063;-79
2022/04/02 07:15:31;;;;;;;6.45;3.10;;;;;;;6.46;100.00;99729.56;5105598;28;20047;-80
2022/04/02 07:17:59;;;;;;;9.32;4.13;;;;;;;6.46;100.00;99725.19;5102545;28;20028;-80
2022/04/02 07:20:27;;;;;;;7.65;3.90;;;;;;;6.37;100.00;99723.47;5105925;28;20036;-79
2022/04/02 07:22:56;;;;;;;9.05;3.33;;;;;;;6.12;100.00;99716.28;5108202;28;20432;-79
2022/04/02 07:25:22;;;;;;;6.55;3.40;;;;;;;6.01;100.00;99734.72;5100200;28;20112;-80
2022/04/02 07:27:50;;;;;;;8.93;3.90;;;;;;;5.89;100.00;99733.25;5104661;28;20020;-80
2022/04/02 07:30:15;;;;;;;9.55;3.72;;;;;;;5.73;100.00;99737.34;5107272;28;20059;-81
2022/04/02 07:32:41;;;;;;;7.38;3.33;;;;;;;5.74;100.00;99731.16;5105637;28;20020;-81
2022/04/02 07:35:08;;;;;;;8.50;3.67;;;;;;;5.63;100.00;99739.16;5099754;28;20032;-80
2022/04/02 07:37:52;;;;;;;14.13;4.10;;;;;;;5.41;100.00;99739.41;5100526;28;20032;-80
2022/04/02 07:40:22;;;;;;;7.68;3.70;;;;;;;5.63;100.00;99741.75;5104780;28;20108;-80
2022/04/02 07:43:12;;;;;;;12.60;3.72;;;;;;;5.58;100.00;99740.41;5101264;28;20036;-81
2022/04/02 07:45:40;;;;;;;7.38;3.85;;;;;;;5.51;100.00;99754.16;5102666;28;20119;-83
2022/04/02 07:48:08;;;;;;;9.13;4.07;;;;;;;5.45;100.00;99745.13;5102077;28;20118;-82
2022/04/02 07:50:34;;;;;;;9.00;4.55;;;;;;;5.54;100.00;99738.25;5100819;28;20485;-79
2022/04/02 07:53:06;;;;;;;13.65;5.35;;;;;;;5.25;100.00;99750.41;5104896;28;20165;-80
2022/04/02 07:55:35;;;;;;;10.77;5.13;;;;;;;5.37;100.00;99758.06;5105127;28;20024;-80
2022/04/02 07:58:02;;;;;;;11.70;4.53;;;;;;;5.64;100.00;99765.06;5102853;28;20034;-83
2022/04/02 08:00:28;;;;;;;8.60;3.92;;;;;;;5.36;100.00;99756.41;5102182;28;20081;-80
2022/04/02 08:02:56;;;;;;;15.43;4.50;;;;;;;5.60;100.00;99768.09;5104916;28;20035;-81
2022/04/02 08:05:23;;;;;;;11.88;3.88;;;;;;;5.57;100.00;99770.03;5104080;28;20103;-80
2022/04/02 08:07:50;;;;;;;6.88;3.85;;;;;;;5.63;100.00;99755.63;5107723;28;20059;-80
2022/04/02 08:10:18;;;;;;;14.07;4.65;;;;;;;5.91;100.00;99765.22;5099053;28;20493;-80
2022/04/02 08:12:44;;;;;;;10.57;4.55;;;;;;;6.27;100.00;99786.13;5105578;28;20482;-81
2022/04/02 08:15:18;;;;;;;17.42;5.00;;;;;;;6.71;100.00;99783.59;5109739;28;20037;-81
2022/04/02 08:17:47;;;;;;;11.18;4.75;;;;;;;7.06;100.00;99782.84;5111426;28;20028;-81
2022/04/02 08:20:16;;;;;;;15.77;4.82;;;;;;;7.23;100.00;99781.97;5097553;28;20086;-80
2022/04/02 08:22:43;;;;;;;9.38;6.03;;;;;;;7.31;100.00;99778.59;5097705;28;20052;-80
2022/04/02 08:25:09;;;;;;;12.57;5.68;;;;;;;7.23;100.00;99792.44;5105742;28;20405;-80
2022/04/02 08:27:56;;;;;;;20.98;6.07;;;;;;;7.06;100.00;99781.06;5099082;28;20051;-80
2022/04/02 08:30:33;;;;;;;9.85;5.50;;;;;;;7.52;100.00;99790.47;5099385;28;20024;-80
2022/04/02 08:33:28;;;;;;;8.10;5.18;;;;;;;7.76;100.00;99787.16;5103191;28;20039;-79
2022/04/02 08:36:00;;;;;;;12.40;6.43;;;;;;;7.67;100.00;99793.31;5110147;28;20020;-79
2022/04/02 08:38:42;;;;;;;11.43;5.63;;;;;;;7.35;100.00;99794.78;5101508;28;20027;-79
2022/04/02 08:41:45;;;;;;;11.38;5.20;;;;;;;6.81;100.00;99793.13;5106251;28;20085;-82
2022/04/02 08:44:49;;;;;;;12.20;6.03;;;;;;;7.45;100.00;99798.09;5100687;28;20485;-82
2022/04/02 08:47:17;;;;;;;19.25;6.85;;;;;;;7.43;100.00;99797.44;5104270;28;20022;-80
2022/04/02 08:50:10;;;;;;;8.57;5.60;;;;;;;8.12;100.00;99792.16;5106444;28;20122;-81
2022/04/02 08:52:55;;;;;;;11.13;5.30;;;;;;;8.46;100.00;99790.41;5102013;28;20050;-81
2022/04/02 08:55:36;;;;;;;15.90;5.90;;;;;;;8.82;100.00;99795.38;5104273;28;20122;-81
2022/04/02 08:58:08;;;;;;;9.45;3.55;;;;;;;9.34;100.00;99795.13;5104413;28;20024;-81
2022/04/02 09:00:50;;;;;;;10.73;3.80;;;;;;;9.67;100.00;99790.59;5099921;28;20132;-82
2022/04/02 09:03:28;;;;;;;7.90;3.47;;;;;;;9.26;98.31;99796.81;5102740;28;20031;-81
2022/04/02 09:05:56;;;;;;;8.57;3.95;;;;;;;8.79;97.53;99792.25;5101272;28;20036;-81
2022/04/02 09:08:23;;;;;;;8.13;3.35;;;;;;;8.91;95.28;99800.59;5108254;28;20067;-82
2022/04/02 09:11:24;;;;;;;6.35;3.45;;;;;;;8.72;96.90;99802.56;5101011;28;20089;-80
2022/04/02 09:14:12;;;;;;;7.07;2.75;;;;;;;9.18;96.62;99804.66;5043867;28;20388;-85
2022/04/02 09:16:55;;;;;;;6.32;3.28;;;;;;;9.41;95.64;99798.72;5099830;28;20389;-84
2022/04/02 09:19:46;;;;;;;6.43;2.95;;;;;;;9.39;96.75;99783.19;5100709;28;20059;-86
2022/04/02 09:22:48;;;;;;;8.48;3.58;;;;;;;9.82;97.18;99798.56;5098629;28;20427;-84
2022/04/02 09:25:47;;;;;;;4.53;2.20;;;;;;;10.07;94.25;99806.34;5099118;28;20024;-84
2022/04/02 09:28:49;;;;;;;7.22;2.30;;;;;;;10.35;92.01;99813.72;5094948;28;20487;-85
2022/04/02 09:31:27;;;;;;;11.38;2.80;;;;;;;10.97;92.03;99811.16;5093132;28;20481;-85
2022/04/02 09:34:30;;;;;;;5.13;2.67;;;;;;;11.11;92.04;99814.81;5087170;28;20032;-85
2022/04/02 09:37:08;;;;;;;8.10;2.78;;;;;;;11.12;90.36;99817.25;5104187;28;20030;-86
2022/04/02 09:39:55;;;;;;;8.07;3.65;;;;;;;10.36;86.96;99815.34;5105285;28;20032;-87
2022/04/02 09:42:41;;;;;;;8.25;3.63;;;;;;;10.61;87.67;99806.53;5103017;28;20077;-87
2022/04/02 09:45:12;;;;;;;5.70;3.33;;;;;;;10.99;87.15;99804.72;5106742;28;20036;-83
2022/04/02 09:47:38;;;;;;;5.07;3.03;;;;;;;11.63;88.67;99813.09;5110574;28;20038;-88
2022/04/02 09:50:03;;;;;;;6.72;2.90;;;;;;;11.77;85.59;99816.72;5098966;28;20130;-89
2022/04/02 09:52:31;;;;;;;5.18;3.50;;;;;;;11.77;83.56;99808.81;5095799;28;20397;-86
2022/04/02 09:55:03;;;;;;;13.48;6.18;;;;;;;11.51;83.30;99804.88;5103268;28;20031;-85
2022/04/02 09:57:38;;;;;;;7.03;6.30;;;;;;;11.04;84.11;99817.31;5098913;28;20130;-85
2022/04/02 10:00:08;;;;;;;6.78;6.22;;;;;;;11.52;83.49;99811.75;5102434;28;20142;-86
2022/04/02 10:02:46;;;;;;;6.85;6.25;;;;;;;12.39;81.89;99809.38;5086117;28;20081;-85
2022/04/02 10:05:19;;;;;;;7.22;6.63;;;;;;;11.67;81.45;99813.56;5099619;28;20110;-85
2022/04/02 10:08:05;;;;;;;11.13;8.82;;;;;;;12.19;81.25;99803.09;5097905;28;20059;-84
2022/04/02 10:10:31;;;;;;;10.02;7.72;;;;;;;12.42;80.12;99798.47;5098971;28;20021;-86
2022/04/02 10:12:57;;;;;;;12.95;8.27;;;;;;;11.26;83.01;99799.88;5100690;28;20039;-82
2022/04/02 10:15:24;;;;;;;12.13;6.70;;;;;;;12.24;84.92;99805.97;5097972;28;20039;-81
2022/04/02 10:17:52;;;;;;;7.32;6.63;;;;;;;11.47;83.06;99800.97;5103899;28;20020;-82
2022/04/02 10:20:28;;;;;;;7.85;6.63;;;;;;;11.82;82.03;99803.84;5106766;28;20055;-82
2022/04/02 10:23:20;;;;;;;7.30;6.38;;;;;;;12.23;78.80;99809.59;5078095;28;20064;-81
2022/04/02 10:26:08;;;;;;;7.00;6.50;;;;;;;11.69;73.89;99803.69;5098429;28;20080;-84
2022/04/02 10:28:51;;;;;;;8.10;7.50;;;;;;;11.96;76.62;99799.56;5094542;28;20028;-83
2022/04/02 10:31:35;;;;;;;7.93;7.28;;;;;;;11.61;74.90;99814.31;5094498;28;20377;-83
2022/04/02 10:34:26;;;;;;;7.90;7.10;;;;;;;10.65;73.71;99806.00;5096881;28;20035;-85
2022/04/02 10:37:10;;;;;;;7.53;6.88;;;;;;;11.46;72.13;99822.16;5103639;28;20105;-85
2022/04/02 10:39:50;;;;;;;8.00;7.30;;;;;;;11.10;71.68;99814.00;5099438;28;20461;-84
2022/04/02 10:42:19;;;;;;;8.27;7.68;;;;;;;10.53;74.14;99820.53;5083386;28;20028;-84
2022/04/02 10:44:57;;;;;;;9.02;8.13;;;;;;;10.32;76.49;99818.47;5107095;28;20465;-84
2022/04/02 10:47:27;;;;;;;11.40;10.35;;;;;;;9.97;77.17;99821.47;5105722;28;20028;-84
2022/04/02 10:50:07;;;;;;;18.33;13.18;;;;;;;9.77;78.83;99826.31;5104230;28;20040;-83
2022/04/02 10:52:36;;;;;;;12.68;8.73;;;;;;;9.18;79.53;99811.72;5084645;28;20104;-83
2022/04/02 10:55:03;;;;;;;9.32;8.35;;;;;;;9.14;82.84;99819.91;5106756;28;20039;-84
2022/04/02 10:57:32;;;;;;;12.68;8.27;;;;;;;8.89;81.26;99824.34;5107871;28;20039;-85
2022/04/02 11:00:07;;;;;;;9.30;8.43;;;;;;;8.82;82.25;99828.56;5102028;28;20031;-82
2022/04/02 11:02:49;;;;;;;11.48;8.43;;;;;;;8.74;87.23;99831.22;5102848;28;20047;-82
2022/04/02 11:05:17;;;;;;;11.02;8.40;;;;;;;9.11;87.81;99809.75;5097507;28;20112;-82
2022/04/02 11:07:45;;;;;;;9.43;8.48;;;;;;;9.49;85.05;99827.53;5103109;28;20024;-83
2022/04/02 11:10:21;;;;;;;8.52;7.60;;;;;;;9.67;81.46;99822.06;5102524;28;20032;-82
2022/04/02 11:12:58;;;;;;;8.43;7.38;;;;;;;10.26;80.86;99823.44;5103820;28;20359;-83
2022/04/02 11:15:24;;;;;;;7.60;6.97;;;;;;;10.60;78.47;99810.13;5108520;28;20375;-83
2022/04/02 11:18:01;;;;;;;9.95;8.15;;;;;;;10.70;77.36;99811.53;5108170;28;20035;-83
2022/04/02 11:20:29;;;;;;;8.55;7.70;;;;;;;10.48;75.86;99807.91;5103055;28;20020;-83
2022/04/02 11:23:02;;;;;;;8.05;7.13;;;;;;;10.57;76.75;99827.03;5101573;28;20036;-84
2022/04/02 11:25:31;;;;;;;7.68;6.97;;;;;;;10.86;75.93;99815.81;5100386;28;20513;-82
2022/04/02 11:27:58;;;;;;;8.23;7.43;;;;;;;11.12;73.29;99814.63;5102476;28;20032;-81
2022/04/02 11:30:33;;;;;;;7.72;7.07;;;;;;;11.29;74.28;99817.06;5101242;28;20028;-82
2022/04/02 11:33:19;;;;;;;9.82;7.13;;;;;;;11.31;75.75;99811.66;5106824;28;20024;-82
2022/04/02 11:35:53;;;;;;;7.88;7.28;;;;;;;10.54;76.85;99801.16;5101290;28;20028;-83
2022/04/02 11:38:22;;;;;;;;;;;;;;;10.49;74.97;99814.00;5104029;28;20024;-82
2022/04/02 11:41:13;;;;;;;9.07;7.32;;;;;;;10.05;73.98;99818.81;5102384;28;19916;-83
2022/04/02 11:43:44;;;;;;;8.60;7.80;;;;;;;10.36;74.67;99825.84;5106023;28;20051;-85
2022/04/02 11:46:17;;;;;;;8.38;7.60;;;;;;;10.12;72.78;99813.66;5108936;28;20038;-85
2022/04/02 11:48:59;;;;;;;9.63;8.70;;;;;;;10.32;76.69;99819.31;5110692;28;20045;-82